sensor_id;sensor_type;location;lat;lon;timestamp;pressure;altitude;pressure_sealevel;temperature;humidity
76594;BME280;65482;50.240;14.302;2022-12-07T00:00:50;99338.22;;;4.03;69.56
76594;BME280;65482;50.240;14.302;2022-12-07T00:03:16;99333.69;;;4.05;69.72
76594;BME280;65482;50.240;14.302;2022-12-07T00:05:41;99337.38;;;4.02;69.28
76594;BME280;65482;50.240;14.302;2022-12-07T00:08:07;99328.00;;;3.99;69.29
76594;BME280;65482;50.240;14.302;2022-12-07T00:10:33;99333.09;;;4.01;69.01
76594;BME280;65482;50.240;14.302;2022-12-07T00:12:59;99333.94;;;4.02;69.04
76594;BME280;65482;50.240;14.302;2022-12-07T00:15:25;99333.81;;;4.03;68.95
76594;BME280;65482;50.240;14.302;2022-12-07T00:17:50;99330.13;;;4.06;69.02
76594;BME280;65482;50.240;14.302;2022-12-07T00:20:16;99328.22;;;4.08;69.06
76594;BME280;65482;50.240;14.302;2022-12-07T00:22:41;99330.81;;;4.08;68.75
76594;BME280;65482;50.240;14.302;2022-12-07T00:25:07;99327.66;;;4.04;69.13
76594;BME280;65482;50.240;14.302;2022-12-07T00:27:32;99329.41;;;4.04;68.87
76594;BME280;65482;50.240;14.302;2022-12-07T00:29:58;99324.06;;;4.05;69.04
76594;BME280;65482;50.240;14.302;2022-12-07T00:32:23;99319.66;;;4.06;68.93
76594;BME280;65482;50.240;14.302;2022-12-07T00:34:49;99322.28;;;4.06;68.86
76594;BME280;65482;50.240;14.302;2022-12-07T00:37:15;99323.84;;;4.08;69.51
76594;BME280;65482;50.240;14.302;2022-12-07T00:39:40;99319.56;;;4.07;69.06
76594;BME280;65482;50.240;14.302;2022-12-07T00:42:06;99322.16;;;4.07;69.06
76594;BME280;65482;50.240;14.302;2022-12-07T00:44:32;99313.41;;;4.08;69.16
76594;BME280;65482;50.240;14.302;2022-12-07T00:46:57;99318.75;;;4.07;69.31
76594;BME280;65482;50.240;14.302;2022-12-07T00:49:23;99315.41;;;4.05;69.02
76594;BME280;65482;50.240;14.302;2022-12-07T00:51:49;99309.38;;;4.04;69.31
76594;BME280;65482;50.240;14.302;2022-12-07T00:54:14;99306.63;;;4.06;69.18
76594;BME280;65482;50.240;14.302;2022-12-07T00:56:40;99310.09;;;4.06;69.23
76594;BME280;65482;50.240;14.302;2022-12-07T00:59:06;99307.47;;;4.06;69.36
76594;BME280;65482;50.240;14.302;2022-12-07T01:01:34;99316.13;;;4.07;69.27
76594;BME280;65482;50.240;14.302;2022-12-07T01:04:00;99320.38;;;4.08;69.06
76594;BME280;65482;50.240;14.302;2022-12-07T01:06:29;99318.84;;;4.05;68.86
76594;BME280;65482;50.240;14.302;2022-12-07T01:08:55;99330.25;;;4.04;69.33
76594;BME280;65482;50.240;14.302;2022-12-07T01:11:24;99319.94;;;4.03;69.50
76594;BME280;65482;50.240;14.302;2022-12-07T01:13:54;99319.94;;;4.03;69.30
76594;BME280;65482;50.240;14.302;2022-12-07T01:16:21;99319.94;;;4.03;69.19
76594;BME280;65482;50.240;14.302;2022-12-07T01:18:49;99318.41;;;4.00;69.18
76594;BME280;65482;50.240;14.302;2022-12-07T01:21:20;99316.03;;;3.97;69.43
76594;BME280;65482;50.240;14.302;2022-12-07T01:23:46;99316.03;;;3.97;69.48
76594;BME280;65482;50.240;14.302;2022-12-07T01:26:14;99316.03;;;3.97;69.07
76594;BME280;65482;50.240;14.302;2022-12-07T01:28:40;99317.00;;;3.96;69.80
76594;BME280;65482;50.240;14.302;2022-12-07T01:31:08;99317.94;;;3.95;69.83
76594;BME280;65482;50.240;14.302;2022-12-07T01:33:36;99315.31;;;3.95;69.59
76594;BME280;65482;50.240;14.302;2022-12-07T01:36:12;99317.22;;;3.93;69.84
76594;BME280;65482;50.240;14.302;2022-12-07T01:38:39;99322.44;;;3.93;69.88
76594;BME280;65482;50.240;14.302;2022-12-07T01:41:04;99312.72;;;3.95;69.79
76594;BME280;65482;50.240;14.302;2022-12-07T01:43:32;99313.91;;;3.91;69.36
76594;BME280;65482;50.240;14.302;2022-12-07T01:45:58;99309.53;;;3.91;69.48
76594;BME280;65482;50.240;14.302;2022-12-07T01:48:28;99300.06;;;3.90;69.44
76594;BME280;65482;50.240;14.302;2022-12-07T01:50:56;99310.50;;;3.90;69.71
76594;BME280;65482;50.240;14.302;2022-12-07T01:53:28;99299.06;;;3.91;69.66
76594;BME280;65482;50.240;14.302;2022-12-07T01:55:55;99305.38;;;3.89;69.65
76594;BME280;65482;50.240;14.302;2022-12-07T01:58:22;99304.31;;;3.91;69.48
76594;BME280;65482;50.240;14.302;2022-12-07T02:00:48;99305.38;;;3.89;69.25
76594;BME280;65482;50.240;14.302;2022-12-07T02:03:19;99307.16;;;3.88;69.79
76594;BME280;65482;50.240;14.302;2022-12-07T02:05:46;99309.91;;;3.87;69.51
76594;BME280;65482;50.240;14.302;2022-12-07T02:08:13;99307.53;;;3.84;70.05
76594;BME280;65482;50.240;14.302;2022-12-07T02:10:38;99304.09;;;3.83;69.89
76594;BME280;65482;50.240;14.302;2022-12-07T02:13:32;99302.44;;;3.82;69.70
76594;BME280;65482;50.240;14.302;2022-12-07T02:18:59;99306.81;;;3.82;70.00
76594;BME280;65482;50.240;14.302;2022-12-07T02:24:19;99304.19;;;3.82;69.99
76594;BME280;65482;50.240;14.302;2022-12-07T02:29:45;99304.47;;;3.78;69.78
76594;BME280;65482;50.240;14.302;2022-12-07T02:35:02;99304.09;;;3.83;69.78
76594;BME280;65482;50.240;14.302;2022-12-07T02:37:42;99305.88;;;3.83;69.55
76594;BME280;65482;50.240;14.302;2022-12-07T02:40:24;99301.47;;;3.83;69.57
76594;BME280;65482;50.240;14.302;2022-12-07T02:42:57;99296.25;;;3.83;69.31
76594;BME280;65482;50.240;14.302;2022-12-07T02:45:25;99297.94;;;3.84;69.82
76594;BME280;65482;50.240;14.302;2022-12-07T02:47:55;99302.78;;;3.89;69.32
76594;BME280;65482;50.240;14.302;2022-12-07T02:50:22;99289.72;;;3.89;69.33
76594;BME280;65482;50.240;14.302;2022-12-07T02:52:48;99288.06;;;3.88;69.79
76594;BME280;65482;50.240;14.302;2022-12-07T02:55:17;99290.66;;;3.88;69.92
76594;BME280;65482;50.240;14.302;2022-12-07T03:00:58;99282.28;;;3.84;70.35
76594;BME280;65482;50.240;14.302;2022-12-07T03:03:27;99285.13;;;3.81;70.09
76594;BME280;65482;50.240;14.302;2022-12-07T03:06:34;99286.91;;;3.81;69.77
76594;BME280;65482;50.240;14.302;2022-12-07T03:09:13;99282.63;;;3.79;69.87
76594;BME280;65482;50.240;14.302;2022-12-07T03:11:42;99280.72;;;3.82;69.50
76594;BME280;65482;50.240;14.302;2022-12-07T03:16:47;99274.44;;;3.84;69.30
76594;BME280;65482;50.240;14.302;2022-12-07T03:19:16;99279.53;;;3.86;69.26
76594;BME280;65482;50.240;14.302;2022-12-07T03:21:50;99265.53;;;3.87;69.09
76594;BME280;65482;50.240;14.302;2022-12-07T03:24:21;99263.88;;;3.86;69.25
76594;BME280;65482;50.240;14.302;2022-12-07T03:26:51;99264.72;;;3.86;69.24
76594;BME280;65482;50.240;14.302;2022-12-07T03:29:22;99264.00;;;3.84;69.43
76594;BME280;65482;50.240;14.302;2022-12-07T03:32:16;99257.72;;;3.87;69.14
76594;BME280;65482;50.240;14.302;2022-12-07T03:35:15;99256.19;;;3.84;69.24
76594;BME280;65482;50.240;14.302;2022-12-07T03:37:51;99251.09;;;3.83;69.70
76594;BME280;65482;50.240;14.302;2022-12-07T03:40:52;99252.88;;;3.82;69.44
76594;BME280;65482;50.240;14.302;2022-12-07T03:43:21;99245.88;;;3.83;69.74
76594;BME280;65482;50.240;14.302;2022-12-07T03:48:46;99231.41;;;3.78;69.80
76594;BME280;65482;50.240;14.302;2022-12-07T03:51:25;99240.88;;;3.79;69.75
76594;BME280;65482;50.240;14.302;2022-12-07T03:54:05;99244.47;;;3.78;70.01
76594;BME280;65482;50.240;14.302;2022-12-07T03:56:34;99245.50;;;3.76;70.02
76594;BME280;65482;50.240;14.302;2022-12-07T03:59:00;99239.59;;;3.74;70.31
76594;BME280;65482;50.240;14.302;2022-12-07T04:01:25;99240.56;;;3.73;69.98
76594;BME280;65482;50.240;14.302;2022-12-07T04:03:52;99244.81;;;3.74;69.78
76594;BME280;65482;50.240;14.302;2022-12-07T04:06:18;99238.19;;;3.70;70.19
76594;BME280;65482;50.240;14.302;2022-12-07T04:08:44;99239.84;;;3.71;69.65
76594;BME280;65482;50.240;14.302;2022-12-07T04:11:09;99238.19;;;3.70;69.72
76594;BME280;65482;50.240;14.302;2022-12-07T04:13:35;99236.28;;;3.72;69.59
76594;BME280;65482;50.240;14.302;2022-12-07T04:16:20;99231.91;;;3.72;69.36
76594;BME280;65482;50.240;14.302;2022-12-07T04:18:46;99232.84;;;3.71;69.50
76594;BME280;65482;50.240;14.302;2022-12-07T04:21:11;99230.84;;;3.64;69.43
76594;BME280;65482;50.240;14.302;2022-12-07T04:23:38;99237.66;;;3.55;69.62
76594;BME280;65482;50.240;14.302;2022-12-07T04:26:03;99234.00;;;3.46;69.29
76594;BME280;65482;50.240;14.302;2022-12-07T04:28:29;99232.81;;;3.39;69.72
76594;BME280;65482;50.240;14.302;2022-12-07T04:30:54;99236.50;;;3.36;69.85
76594;BME280;65482;50.240;14.302;2022-12-07T04:33:20;99232.81;;;3.39;69.53
76594;BME280;65482;50.240;14.302;2022-12-07T04:35:45;99245.84;;;3.39;69.54
76594;BME280;65482;50.240;14.302;2022-12-07T04:38:11;99237.06;;;3.40;69.73
76594;BME280;65482;50.240;14.302;2022-12-07T04:40:36;99228.19;;;3.31;69.83
76594;BME280;65482;50.240;14.302;2022-12-07T04:43:02;99230.81;;;3.20;69.79
76594;BME280;65482;50.240;14.302;2022-12-07T04:45:27;99223.03;;;3.09;70.23
76594;BME280;65482;50.240;14.302;2022-12-07T04:47:53;99227.03;;;3.02;70.31
76594;BME280;65482;50.240;14.302;2022-12-07T04:50:19;99224.69;;;2.98;70.09
76594;BME280;65482;50.240;14.302;2022-12-07T04:52:44;99227.63;;;2.94;69.86
76594;BME280;65482;50.240;14.302;2022-12-07T04:55:10;99229.91;;;2.87;70.58
76594;BME280;65482;50.240;14.302;2022-12-07T04:57:35;99225.38;;;2.78;70.68
76594;BME280;65482;50.240;14.302;2022-12-07T05:00:01;99228.47;;;2.72;70.64
76594;BME280;65482;50.240;14.302;2022-12-07T05:02:26;99222.78;;;2.67;70.68
76594;BME280;65482;50.240;14.302;2022-12-07T05:04:52;99222.19;;;2.63;70.98
76594;BME280;65482;50.240;14.302;2022-12-07T05:07:17;99223.00;;;2.64;70.38
76594;BME280;65482;50.240;14.302;2022-12-07T05:09:43;99226.69;;;2.72;70.35
76594;BME280;65482;50.240;14.302;2022-12-07T05:12:09;99233.19;;;2.78;70.12
76594;BME280;65482;50.240;14.302;2022-12-07T05:14:34;99238.06;;;2.83;69.87
76594;BME280;65482;50.240;14.302;2022-12-07T05:17:00;99231.78;;;2.85;69.88
76594;BME280;65482;50.240;14.302;2022-12-07T05:19:26;99232.28;;;2.79;69.41
76594;BME280;65482;50.240;14.302;2022-12-07T05:21:52;99236.16;;;2.73;69.45
76594;BME280;65482;50.240;14.302;2022-12-07T05:24:17;99236.16;;;2.73;69.33
76594;BME280;65482;50.240;14.302;2022-12-07T05:26:44;99231.66;;;2.75;69.50
76594;BME280;65482;50.240;14.302;2022-12-07T05:29:12;99229.53;;;2.69;69.01
76594;BME280;65482;50.240;14.302;2022-12-07T05:31:38;99224.78;;;2.63;69.74
76594;BME280;65482;50.240;14.302;2022-12-07T05:34:04;99220.53;;;2.51;69.91
76594;BME280;65482;50.240;14.302;2022-12-07T05:36:29;99218.97;;;2.37;70.46
76594;BME280;65482;50.240;14.302;2022-12-07T05:38:57;99215.25;;;2.28;70.11
76594;BME280;65482;50.240;14.302;2022-12-07T05:41:23;99222.91;;;2.18;71.00
76594;BME280;65482;50.240;14.302;2022-12-07T05:44:07;99218.44;;;2.21;70.67
76594;BME280;65482;50.240;14.302;2022-12-07T05:46:33;99219.84;;;2.13;70.80
76594;BME280;65482;50.240;14.302;2022-12-07T05:48:59;99219.25;;;2.10;70.92
76594;BME280;65482;50.240;14.302;2022-12-07T05:51:25;99223.94;;;2.05;70.89
76594;BME280;65482;50.240;14.302;2022-12-07T05:53:50;99229.03;;;2.06;70.85
76594;BME280;65482;50.240;14.302;2022-12-07T05:56:16;99225.81;;;2.03;71.15
76594;BME280;65482;50.240;14.302;2022-12-07T05:58:42;99226.88;;;2.00;70.83
76594;BME280;65482;50.240;14.302;2022-12-07T06:01:26;99217.16;;;1.91;70.74
76594;BME280;65482;50.240;14.302;2022-12-07T06:03:51;99217.03;;;1.81;71.38
76594;BME280;65482;50.240;14.302;2022-12-07T06:06:17;99227.38;;;1.70;71.67
76594;BME280;65482;50.240;14.302;2022-12-07T06:08:43;99216.78;;;1.60;71.81
76594;BME280;65482;50.240;14.302;2022-12-07T06:11:10;99216.63;;;1.50;72.64
76594;BME280;65482;50.240;14.302;2022-12-07T06:13:54;99222.25;;;1.44;72.72
76594;BME280;65482;50.240;14.302;2022-12-07T06:16:20;99216.44;;;1.41;73.03
76594;BME280;65482;50.240;14.302;2022-12-07T06:18:45;99218.88;;;1.31;72.68
76594;BME280;65482;50.240;14.302;2022-12-07T06:21:11;99222.25;;;1.20;72.87
76594;BME280;65482;50.240;14.302;2022-12-07T06:23:37;99218.50;;;1.11;72.74
76594;BME280;65482;50.240;14.302;2022-12-07T06:26:03;99219.06;;;1.04;72.67
76594;BME280;65482;50.240;14.302;2022-12-07T06:28:28;99223.22;;;0.93;72.33
76594;BME280;65482;50.240;14.302;2022-12-07T06:30:59;99215.66;;;0.90;72.59
76594;BME280;65482;50.240;14.302;2022-12-07T06:33:25;99220.13;;;0.88;72.78
76594;BME280;65482;50.240;14.302;2022-12-07T06:35:52;99223.84;;;0.97;72.92
76594;BME280;65482;50.240;14.302;2022-12-07T06:38:18;99221.44;;;1.07;73.25
76594;BME280;65482;50.240;14.302;2022-12-07T07:00:47;99209.78;;;1.73;71.14
76594;BME280;65482;50.240;14.302;2022-12-07T07:03:44;99217.69;;;1.72;71.42
76594;BME280;65482;50.240;14.302;2022-12-07T08:16:08;99216.06;;;2.87;66.75
76594;BME280;65482;50.240;14.302;2022-12-07T08:18:38;99227.28;;;2.87;66.65
76594;BME280;65482;50.240;14.302;2022-12-07T08:21:06;99226.22;;;2.90;66.87
76594;BME280;65482;50.240;14.302;2022-12-07T08:23:33;99228.81;;;2.90;66.39
76594;BME280;65482;50.240;14.302;2022-12-07T08:26:04;99227.16;;;3.00;66.66
76594;BME280;65482;50.240;14.302;2022-12-07T08:28:31;99225.97;;;3.04;66.50
76594;BME280;65482;50.240;14.302;2022-12-07T08:31:05;99225.03;;;3.05;66.25
76594;BME280;65482;50.240;14.302;2022-12-07T08:33:35;99232.03;;;3.05;66.53
76594;BME280;65482;50.240;14.302;2022-12-07T08:36:06;99229.78;;;3.11;66.64
76594;BME280;65482;50.240;14.302;2022-12-07T08:38:37;99230.00;;;3.19;66.02
76594;BME280;65482;50.240;14.302;2022-12-07T08:41:05;99223.00;;;3.20;66.23
76594;BME280;65482;50.240;14.302;2022-12-07T08:43:32;99225.13;;;3.26;65.86
76594;BME280;65482;50.240;14.302;2022-12-07T09:15:13;99235.25;;;4.28;63.57
76594;BME280;65482;50.240;14.302;2022-12-07T09:23:05;99235.22;;;4.49;63.11
76594;BME280;65482;50.240;14.302;2022-12-07T09:55:56;99228.81;;;4.32;64.39
76594;BME280;65482;50.240;14.302;2022-12-07T10:43:36;99194.88;;;4.63;64.58
76594;BME280;65482;50.240;14.302;2022-12-07T11:39:37;99155.16;;;4.38;65.70
76594;BME280;65482;50.240;14.302;2022-12-07T11:42:06;99153.16;;;4.51;65.27
76594;BME280;65482;50.240;14.302;2022-12-07T11:56:09;99143.72;;;5.01;63.79
76594;BME280;65482;50.240;14.302;2022-12-07T11:59:50;99147.59;;;5.06;63.70
76594;BME280;65482;50.240;14.302;2022-12-07T12:03:40;99140.00;;;5.13;63.34
76594;BME280;65482;50.240;14.302;2022-12-07T12:12:40;99131.59;;;4.90;63.14
76594;BME280;65482;50.240;14.302;2022-12-07T12:42:42;99112.78;;;4.65;63.03
76594;BME280;65482;50.240;14.302;2022-12-07T12:45:47;99109.94;;;4.68;62.81
76594;BME280;65482;50.240;14.302;2022-12-07T13:08:19;99119.41;;;4.60;62.25
76594;BME280;65482;50.240;14.302;2022-12-07T13:10:50;99108.81;;;4.71;61.66
76594;BME280;65482;50.240;14.302;2022-12-07T13:26:24;99105.22;;;5.12;60.41
76594;BME280;65482;50.240;14.302;2022-12-07T13:29:18;99100.81;;;5.23;59.97
76594;BME280;65482;50.240;14.302;2022-12-07T13:31:46;99098.88;;;5.25;60.62
76594;BME280;65482;50.240;14.302;2022-12-07T13:34:34;99103.44;;;5.23;59.48
76594;BME280;65482;50.240;14.302;2022-12-07T13:37:27;99096.41;;;5.23;59.75
76594;BME280;65482;50.240;14.302;2022-12-07T13:39:56;99101.63;;;5.33;59.49
76594;BME280;65482;50.240;14.302;2022-12-07T13:42:33;99096.97;;;5.36;60.07
76594;BME280;65482;50.240;14.302;2022-12-07T13:45:20;99099.88;;;5.43;59.34
76594;BME280;65482;50.240;14.302;2022-12-07T13:47:53;99102.06;;;5.48;59.65
76594;BME280;65482;50.240;14.302;2022-12-07T13:50:30;99104.69;;;5.48;59.35
76594;BME280;65482;50.240;14.302;2022-12-07T13:52:58;99102.50;;;5.43;58.72
76594;BME280;65482;50.240;14.302;2022-12-07T13:55:24;99103.31;;;5.44;59.16
76594;BME280;65482;50.240;14.302;2022-12-07T13:57:52;99104.69;;;5.48;58.93
76594;BME280;65482;50.240;14.302;2022-12-07T14:00:20;99108.53;;;5.44;59.25
76594;BME280;65482;50.240;14.302;2022-12-07T14:02:58;99112.41;;;5.49;59.54
76594;BME280;65482;50.240;14.302;2022-12-07T14:05:32;99107.31;;;5.48;60.14
76594;BME280;65482;50.240;14.302;2022-12-07T14:08:02;99099.16;;;5.41;60.49
76594;BME280;65482;50.240;14.302;2022-12-07T14:10:39;99097.53;;;5.40;59.82
76594;BME280;65482;50.240;14.302;2022-12-07T14:13:32;99101.94;;;5.30;60.12
76594;BME280;65482;50.240;14.302;2022-12-07T14:16:03;99103.44;;;5.23;60.73
76594;BME280;65482;50.240;14.302;2022-12-07T14:18:39;99104.66;;;5.18;60.31
76594;BME280;65482;50.240;14.302;2022-12-07T14:23:39;99114.19;;;5.20;61.14
76594;BME280;65482;50.240;14.302;2022-12-07T14:28:43;99115.13;;;5.18;60.23
76594;BME280;65482;50.240;14.302;2022-12-07T14:31:18;99111.94;;;5.15;60.68
76594;BME280;65482;50.240;14.302;2022-12-07T14:33:46;99105.47;;;5.19;60.48
76594;BME280;65482;50.240;14.302;2022-12-07T14:36:13;99108.53;;;5.24;60.27
76594;BME280;65482;50.240;14.302;2022-12-07T14:38:39;99103.28;;;5.24;59.72
76594;BME280;65482;50.240;14.302;2022-12-07T14:41:12;99107.41;;;5.27;60.23
76594;BME280;65482;50.240;14.302;2022-12-07T14:43:57;99100.53;;;5.16;60.16
76594;BME280;65482;50.240;14.302;2022-12-07T14:46:23;99091.88;;;5.15;60.31
76594;BME280;65482;50.240;14.302;2022-12-07T14:48:49;99102.59;;;5.12;60.26
76594;BME280;65482;50.240;14.302;2022-12-07T14:51:14;99100.97;;;5.11;60.15
76594;BME280;65482;50.240;14.302;2022-12-07T14:53:43;99103.00;;;5.08;60.78
76594;BME280;65482;50.240;14.302;2022-12-07T14:56:09;99097.34;;;5.03;60.91
76594;BME280;65482;50.240;14.302;2022-12-07T14:58:56;99100.63;;;4.95;60.96
76594;BME280;65482;50.240;14.302;2022-12-07T15:54:49;99085.41;;;3.35;66.77
76594;BME280;65482;50.240;14.302;2022-12-07T15:57:15;99069.91;;;3.22;66.93
76594;BME280;65482;50.240;14.302;2022-12-07T17:27:42;99111.16;;;2.73;69.46
76594;BME280;65482;50.240;14.302;2022-12-07T17:36:31;99117.88;;;2.87;69.21
76594;BME280;65482;50.240;14.302;2022-12-07T17:49:32;99124.84;;;2.98;68.93
76594;BME280;65482;50.240;14.302;2022-12-07T17:55:59;99129.91;;;3.11;68.17
76594;BME280;65482;50.240;14.302;2022-12-07T17:59:56;99122.81;;;3.13;68.13
76594;BME280;65482;50.240;14.302;2022-12-07T18:02:48;99126.13;;;3.15;67.55
76594;BME280;65482;50.240;14.302;2022-12-07T18:08:20;99115.06;;;3.23;67.72
76594;BME280;65482;50.240;14.302;2022-12-07T18:19:56;99126.41;;;3.33;67.78
76594;BME280;65482;50.240;14.302;2022-12-07T18:42:52;99121.69;;;3.27;67.84
76594;BME280;65482;50.240;14.302;2022-12-07T18:53:05;99124.50;;;3.35;67.26
76594;BME280;65482;50.240;14.302;2022-12-07T18:57:09;99129.97;;;3.32;67.54
76594;BME280;65482;50.240;14.302;2022-12-07T19:01:03;99130.81;;;3.32;67.48
76594;BME280;65482;50.240;14.302;2022-12-07T19:11:05;99139.78;;;3.39;67.28
76594;BME280;65482;50.240;14.302;2022-12-07T19:21:18;99132.34;;;3.35;68.19
76594;BME280;65482;50.240;14.302;2022-12-07T19:24:37;99130.03;;;3.42;67.96
76594;BME280;65482;50.240;14.302;2022-12-07T19:51:30;99123.84;;;3.10;70.61
76594;BME280;65482;50.240;14.302;2022-12-07T19:54:50;99116.78;;;3.12;69.51
76594;BME280;65482;50.240;14.302;2022-12-07T19:57:34;99124.81;;;3.09;70.17
76594;BME280;65482;50.240;14.302;2022-12-07T20:00:53;99124.50;;;3.03;69.87
76594;BME280;65482;50.240;14.302;2022-12-07T20:04:13;99123.09;;;2.98;69.89
76594;BME280;65482;50.240;14.302;2022-12-07T20:07:29;99118.81;;;2.86;70.38
76594;BME280;65482;50.240;14.302;2022-12-07T20:10:30;99118.47;;;2.79;70.27
76594;BME280;65482;50.240;14.302;2022-12-07T20:14:26;99117.56;;;2.69;70.63
76594;BME280;65482;50.240;14.302;2022-12-07T20:18:01;99117.31;;;2.61;70.76
76594;BME280;65482;50.240;14.302;2022-12-07T20:25:28;99110.81;;;2.55;71.16
76594;BME280;65482;50.240;14.302;2022-12-07T20:28:39;99111.19;;;2.51;71.20
76594;BME280;65482;50.240;14.302;2022-12-07T20:31:47;99108.09;;;2.46;71.27
76594;BME280;65482;50.240;14.302;2022-12-07T20:38:11;99102.16;;;2.44;71.24
76594;BME280;65482;50.240;14.302;2022-12-07T20:49:02;99097.19;;;2.41;71.21
76594;BME280;65482;50.240;14.302;2022-12-07T20:55:19;99098.00;;;2.52;70.99
76594;BME280;65482;50.240;14.302;2022-12-07T20:58:09;99096.81;;;2.56;70.58
76594;BME280;65482;50.240;14.302;2022-12-07T21:01:28;99098.97;;;2.63;70.90
76594;BME280;65482;50.240;14.302;2022-12-07T21:05:12;99091.41;;;2.71;70.57
76594;BME280;65482;50.240;14.302;2022-12-07T21:18:53;99094.81;;;2.83;70.18
76594;BME280;65482;50.240;14.302;2022-12-07T21:21:47;99094.31;;;2.89;70.50
76594;BME280;65482;50.240;14.302;2022-12-07T21:24:52;99091.72;;;2.89;69.86
76594;BME280;65482;50.240;14.302;2022-12-07T21:28:12;99089.81;;;2.91;70.36
76594;BME280;65482;50.240;14.302;2022-12-07T21:31:38;99096.31;;;2.96;70.00
76594;BME280;65482;50.240;14.302;2022-12-07T21:34:56;99093.56;;;2.98;70.25
76594;BME280;65482;50.240;14.302;2022-12-07T21:37:56;99098.94;;;2.96;70.12
76594;BME280;65482;50.240;14.302;2022-12-07T21:41:14;99097.97;;;2.97;70.32
76594;BME280;65482;50.240;14.302;2022-12-07T21:44:18;99102.00;;;2.90;69.79
76594;BME280;65482;50.240;14.302;2022-12-07T21:47:23;99102.38;;;2.86;70.21
76594;BME280;65482;50.240;14.302;2022-12-07T21:50:47;99091.50;;;2.81;70.03
76594;BME280;65482;50.240;14.302;2022-12-07T21:53:58;99101.44;;;2.75;70.12
76594;BME280;65482;50.240;14.302;2022-12-07T21:56:57;99106.88;;;2.72;70.18
76594;BME280;65482;50.240;14.302;2022-12-07T22:06:56;99107.38;;;2.55;70.50
76594;BME280;65482;50.240;14.302;2022-12-07T22:10:11;99097.78;;;2.44;70.92
76594;BME280;65482;50.240;14.302;2022-12-07T22:13:26;99103.09;;;2.43;70.50
76594;BME280;65482;50.240;14.302;2022-12-07T22:16:58;99096.97;;;2.32;70.79
76594;BME280;65482;50.240;14.302;2022-12-07T22:20:18;99093.19;;;2.25;71.04
76594;BME280;65482;50.240;14.302;2022-12-07T22:23:26;99108.31;;;2.31;70.87
76594;BME280;65482;50.240;14.302;2022-12-07T22:26:25;99102.16;;;2.32;70.76
76594;BME280;65482;50.240;14.302;2022-12-07T22:29:15;99098.97;;;2.29;70.64
76594;BME280;65482;50.240;14.302;2022-12-07T22:32:05;99098.03;;;2.30;71.24
76594;BME280;65482;50.240;14.302;2022-12-07T22:34:56;99092.94;;;2.28;71.33
76594;BME280;65482;50.240;14.302;2022-12-07T22:38:11;99093.66;;;2.30;71.04
76594;BME280;65482;50.240;14.302;2022-12-07T22:44:24;99087.03;;;2.26;70.91
76594;BME280;65482;50.240;14.302;2022-12-07T22:47:57;99089.16;;;2.21;71.21
76594;BME280;65482;50.240;14.302;2022-12-07T22:50:45;99078.88;;;2.19;71.45
76594;BME280;65482;50.240;14.302;2022-12-07T22:53:28;99084.06;;;2.19;71.27
76594;BME280;65482;50.240;14.302;2022-12-07T22:56:33;99081.47;;;2.19;71.73
76594;BME280;65482;50.240;14.302;2022-12-07T22:59:13;99082.53;;;2.17;71.48
76594;BME280;65482;50.240;14.302;2022-12-07T23:01:44;99075.44;;;2.19;71.43
76594;BME280;65482;50.240;14.302;2022-12-07T23:04:33;99071.06;;;2.19;71.43
76594;BME280;65482;50.240;14.302;2022-12-07T23:07:35;99069.28;;;2.20;71.48
76594;BME280;65482;50.240;14.302;2022-12-07T23:10:25;99068.47;;;2.19;71.31
76594;BME280;65482;50.240;14.302;2022-12-07T23:13:03;99062.28;;;2.21;71.62
76594;BME280;65482;50.240;14.302;2022-12-07T23:16:11;99056.16;;;2.22;71.47
76594;BME280;65482;50.240;14.302;2022-12-07T23:18:49;99046.69;;;2.21;71.53
76594;BME280;65482;50.240;14.302;2022-12-07T23:21:30;99061.25;;;2.23;71.29
76594;BME280;65482;50.240;14.302;2022-12-07T23:24:04;99054.16;;;2.25;71.54
76594;BME280;65482;50.240;14.302;2022-12-07T23:26:39;99053.78;;;2.30;71.27
76594;BME280;65482;50.240;14.302;2022-12-07T23:29:21;99039.84;;;2.31;71.36
76594;BME280;65482;50.240;14.302;2022-12-07T23:31:53;99038.16;;;2.30;71.56
76594;BME280;65482;50.240;14.302;2022-12-07T23:34:29;99047.06;;;2.27;71.45
76594;BME280;65482;50.240;14.302;2022-12-07T23:37:07;99044.66;;;2.24;71.94
76594;BME280;65482;50.240;14.302;2022-12-07T23:39:58;99051.41;;;2.27;71.58
76594;BME280;65482;50.240;14.302;2022-12-07T23:42:34;99045.28;;;2.28;71.71
76594;BME280;65482;50.240;14.302;2022-12-07T23:45:44;99050.38;;;2.29;71.60
76594;BME280;65482;50.240;14.302;2022-12-07T23:48:47;99029.28;;;2.32;71.46
76594;BME280;65482;50.240;14.302;2022-12-07T23:51:36;99036.03;;;2.35;71.42
76594;BME280;65482;50.240;14.302;2022-12-07T23:54:54;99035.19;;;2.34;71.44
76594;BME280;65482;50.240;14.302;2022-12-07T23:57:34;99035.09;;;2.36;71.38
